首页
METAR-TAF:

METAR-TAF

机场 :

皮斯里弗, 艾伯塔, 加拿大

纬度: 56-14N, 经度: 117-26W, 海拔: 571米

当前天气观测

该预报发布于45分钟前的09:00 UTC
风速8节,风向北转西北
温度 -19°C
湿度 49%
气压 1028 hPa
能見度: 24.1公里
天空无云

METAR: CYPE 020900Z 34008KT 15SM SKC M19/M27 A3037 RMK SLP339

时间: 03:45 (09:45 UTC)

预报

该预报发布于3小时和7分钟前的06:38 UTC
预报有效从02日的 07点(UTC)到 02日的 19点(UTC)
风速6节,风向
能見度: 10公里
天空无云

TAF: CYPE 020638Z 0207/0219 35006KT P6SM SKC RMK NXT FCST BY 021300Z

超过4000个机场的气象观测和天气预报(METAR&TAF报告)。

可查询的气象台以黄色和红色小点在地图上表示。

将鼠标移到小点上方,可查看气象台名称。

然后点击查看天气观测和预报。

如需切换地图:点击带黑十字的绿色按钮放大地图;点击带横线的绿色按钮缩小地图;或者点击绿色箭头查看邻近地区的地图。


METAR-TAF: